sensor_id;sensor_type;location;lat;lon;timestamp;P1;durP1;ratioP1;P2;durP2;ratioP2
76546;SDS011;65390;53.014;8.886;2023-04-03T00:01:10;3.65;;;2.03;;
76546;SDS011;65390;53.014;8.886;2023-04-03T00:03:36;10.03;;;2.63;;
76546;SDS011;65390;53.014;8.886;2023-04-03T00:06:01;11.13;;;2.58;;
76546;SDS011;65390;53.014;8.886;2023-04-03T00:08:27;8.98;;;2.20;;
76546;SDS011;65390;53.014;8.886;2023-04-03T00:10:52;9.63;;;2.42;;
76546;SDS011;65390;53.014;8.886;2023-04-03T00:13:17;6.65;;;2.20;;
76546;SDS011;65390;53.014;8.886;2023-04-03T00:15:43;5.95;;;1.95;;
76546;SDS011;65390;53.014;8.886;2023-04-03T00:18:08;9.07;;;2.22;;
76546;SDS011;65390;53.014;8.886;2023-04-03T00:20:33;4.20;;;1.88;;
76546;SDS011;65390;53.014;8.886;2023-04-03T00:22:59;7.85;;;2.17;;
76546;SDS011;65390;53.014;8.886;2023-04-03T00:25:24;9.65;;;2.10;;
76546;SDS011;65390;53.014;8.886;2023-04-03T00:27:50;9.00;;;2.03;;
76546;SDS011;65390;53.014;8.886;2023-04-03T00:30:16;13.60;;;2.65;;
76546;SDS011;65390;53.014;8.886;2023-04-03T00:32:42;7.35;;;1.95;;
76546;SDS011;65390;53.014;8.886;2023-04-03T00:35:07;6.70;;;2.08;;
76546;SDS011;65390;53.014;8.886;2023-04-03T00:37:33;9.77;;;2.80;;
76546;SDS011;65390;53.014;8.886;2023-04-03T00:39:58;8.98;;;2.05;;
76546;SDS011;65390;53.014;8.886;2023-04-03T00:42:23;9.00;;;2.40;;
76546;SDS011;65390;53.014;8.886;2023-04-03T00:47:15;8.17;;;2.43;;
76546;SDS011;65390;53.014;8.886;2023-04-03T00:49:41;5.32;;;2.25;;
76546;SDS011;65390;53.014;8.886;2023-04-03T00:52:08;10.85;;;3.03;;
76546;SDS011;65390;53.014;8.886;2023-04-03T00:54:34;6.90;;;2.00;;
76546;SDS011;65390;53.014;8.886;2023-04-03T00:57:01;10.68;;;2.92;;
76546;SDS011;65390;53.014;8.886;2023-04-03T00:59:27;6.82;;;2.35;;
76546;SDS011;65390;53.014;8.886;2023-04-03T01:01:55;6.25;;;2.55;;
76546;SDS011;65390;53.014;8.886;2023-04-03T01:04:31;13.68;;;2.35;;
76546;SDS011;65390;53.014;8.886;2023-04-03T01:06:57;6.78;;;2.25;;
76546;SDS011;65390;53.014;8.886;2023-04-03T01:09:23;7.20;;;2.10;;
76546;SDS011;65390;53.014;8.886;2023-04-03T01:11:48;8.43;;;2.42;;
76546;SDS011;65390;53.014;8.886;2023-04-03T01:14:14;10.48;;;2.25;;
76546;SDS011;65390;53.014;8.886;2023-04-03T01:16:39;11.40;;;2.67;;
76546;SDS011;65390;53.014;8.886;2023-04-03T01:19:08;6.32;;;2.13;;
76546;SDS011;65390;53.014;8.886;2023-04-03T01:21:46;5.85;;;2.17;;
76546;SDS011;65390;53.014;8.886;2023-04-03T01:24:34;8.85;;;2.15;;
76546;SDS011;65390;53.014;8.886;2023-04-03T01:27:00;6.00;;;2.45;;
76546;SDS011;65390;53.014;8.886;2023-04-03T01:29:26;6.60;;;2.45;;
76546;SDS011;65390;53.014;8.886;2023-04-03T01:31:52;15.13;;;2.83;;
76546;SDS011;65390;53.014;8.886;2023-04-03T01:34:19;6.75;;;3.15;;
76546;SDS011;65390;53.014;8.886;2023-04-03T01:36:44;10.32;;;2.80;;
76546;SDS011;65390;53.014;8.886;2023-04-03T01:39:10;10.23;;;2.53;;
76546;SDS011;65390;53.014;8.886;2023-04-03T01:41:35;7.13;;;2.65;;
76546;SDS011;65390;53.014;8.886;2023-04-03T01:44:00;20.60;;;3.10;;
76546;SDS011;65390;53.014;8.886;2023-04-03T01:46:26;8.43;;;2.45;;
76546;SDS011;65390;53.014;8.886;2023-04-03T01:48:51;9.55;;;2.95;;
76546;SDS011;65390;53.014;8.886;2023-04-03T01:51:16;8.27;;;2.80;;
76546;SDS011;65390;53.014;8.886;2023-04-03T01:53:41;10.63;;;3.17;;
76546;SDS011;65390;53.014;8.886;2023-04-03T01:56:07;10.27;;;2.30;;
76546;SDS011;65390;53.014;8.886;2023-04-03T01:58:32;13.75;;;3.22;;
76546;SDS011;65390;53.014;8.886;2023-04-03T02:00:57;11.15;;;2.60;;
76546;SDS011;65390;53.014;8.886;2023-04-03T02:03:23;8.35;;;2.85;;
76546;SDS011;65390;53.014;8.886;2023-04-03T02:05:49;9.63;;;3.17;;
76546;SDS011;65390;53.014;8.886;2023-04-03T02:08:14;12.00;;;3.20;;
76546;SDS011;65390;53.014;8.886;2023-04-03T02:10:40;11.75;;;3.13;;
76546;SDS011;65390;53.014;8.886;2023-04-03T02:13:05;10.47;;;2.80;;
76546;SDS011;65390;53.014;8.886;2023-04-03T02:15:30;9.63;;;2.70;;
76546;SDS011;65390;53.014;8.886;2023-04-03T02:17:56;15.63;;;3.05;;
76546;SDS011;65390;53.014;8.886;2023-04-03T02:20:21;10.20;;;2.70;;
76546;SDS011;65390;53.014;8.886;2023-04-03T02:22:46;11.13;;;3.00;;
76546;SDS011;65390;53.014;8.886;2023-04-03T02:25:11;13.40;;;3.10;;
76546;SDS011;65390;53.014;8.886;2023-04-03T02:27:37;10.73;;;2.25;;
76546;SDS011;65390;53.014;8.886;2023-04-03T02:30:03;8.05;;;2.55;;
76546;SDS011;65390;53.014;8.886;2023-04-03T02:32:29;10.65;;;3.30;;
76546;SDS011;65390;53.014;8.886;2023-04-03T02:34:54;10.85;;;3.40;;
76546;SDS011;65390;53.014;8.886;2023-04-03T02:37:19;9.77;;;2.65;;
76546;SDS011;65390;53.014;8.886;2023-04-03T02:39:45;18.15;;;3.03;;
76546;SDS011;65390;53.014;8.886;2023-04-03T02:42:10;12.63;;;2.88;;
76546;SDS011;65390;53.014;8.886;2023-04-03T02:44:36;8.30;;;2.55;;
76546;SDS011;65390;53.014;8.886;2023-04-03T02:47:01;8.38;;;2.22;;
76546;SDS011;65390;53.014;8.886;2023-04-03T02:49:27;12.93;;;2.95;;
76546;SDS011;65390;53.014;8.886;2023-04-03T02:51:52;9.63;;;2.90;;
76546;SDS011;65390;53.014;8.886;2023-04-03T02:54:18;10.30;;;2.40;;
76546;SDS011;65390;53.014;8.886;2023-04-03T02:56:43;9.90;;;2.65;;
76546;SDS011;65390;53.014;8.886;2023-04-03T02:59:08;12.63;;;3.13;;
76546;SDS011;65390;53.014;8.886;2023-04-03T03:01:33;9.63;;;2.58;;
76546;SDS011;65390;53.014;8.886;2023-04-03T03:03:59;9.13;;;3.25;;
76546;SDS011;65390;53.014;8.886;2023-04-03T03:06:25;9.77;;;2.78;;
76546;SDS011;65390;53.014;8.886;2023-04-03T03:08:50;10.68;;;2.83;;
76546;SDS011;65390;53.014;8.886;2023-04-03T03:11:15;8.43;;;2.83;;
76546;SDS011;65390;53.014;8.886;2023-04-03T03:13:41;9.82;;;2.55;;
76546;SDS011;65390;53.014;8.886;2023-04-03T03:16:06;6.13;;;2.90;;
76546;SDS011;65390;53.014;8.886;2023-04-03T03:18:32;4.90;;;2.05;;
76546;SDS011;65390;53.014;8.886;2023-04-03T03:20:58;8.95;;;2.85;;
76546;SDS011;65390;53.014;8.886;2023-04-03T03:23:25;8.20;;;3.00;;
76546;SDS011;65390;53.014;8.886;2023-04-03T03:26:03;8.63;;;2.63;;
76546;SDS011;65390;53.014;8.886;2023-04-03T03:28:28;11.07;;;2.72;;
76546;SDS011;65390;53.014;8.886;2023-04-03T03:30:54;16.27;;;3.78;;
76546;SDS011;65390;53.014;8.886;2023-04-03T03:33:19;16.92;;;2.88;;
76546;SDS011;65390;53.014;8.886;2023-04-03T03:35:44;18.40;;;3.05;;
76546;SDS011;65390;53.014;8.886;2023-04-03T03:38:10;13.85;;;2.78;;
76546;SDS011;65390;53.014;8.886;2023-04-03T03:40:35;9.52;;;2.67;;
76546;SDS011;65390;53.014;8.886;2023-04-03T03:43:00;8.75;;;3.00;;
76546;SDS011;65390;53.014;8.886;2023-04-03T03:45:26;12.73;;;3.28;;
76546;SDS011;65390;53.014;8.886;2023-04-03T03:47:51;6.40;;;3.85;;
76546;SDS011;65390;53.014;8.886;2023-04-03T03:50:16;8.43;;;2.22;;
76546;SDS011;65390;53.014;8.886;2023-04-03T03:52:41;13.38;;;2.95;;
76546;SDS011;65390;53.014;8.886;2023-04-03T03:55:07;10.13;;;3.03;;
76546;SDS011;65390;53.014;8.886;2023-04-03T03:57:32;11.77;;;3.13;;
76546;SDS011;65390;53.014;8.886;2023-04-03T03:59:58;10.30;;;3.15;;
76546;SDS011;65390;53.014;8.886;2023-04-03T04:02:23;8.93;;;2.85;;
76546;SDS011;65390;53.014;8.886;2023-04-03T04:04:48;7.57;;;3.60;;
76546;SDS011;65390;53.014;8.886;2023-04-03T04:07:14;9.30;;;2.58;;
76546;SDS011;65390;53.014;8.886;2023-04-03T04:09:39;12.98;;;2.72;;
76546;SDS011;65390;53.014;8.886;2023-04-03T04:12:04;9.57;;;2.55;;
76546;SDS011;65390;53.014;8.886;2023-04-03T04:14:29;8.43;;;2.47;;
76546;SDS011;65390;53.014;8.886;2023-04-03T04:16:55;9.82;;;2.53;;
76546;SDS011;65390;53.014;8.886;2023-04-03T04:19:20;16.03;;;3.57;;
76546;SDS011;65390;53.014;8.886;2023-04-03T04:21:45;17.17;;;2.87;;
76546;SDS011;65390;53.014;8.886;2023-04-03T04:24:10;15.43;;;3.10;;
76546;SDS011;65390;53.014;8.886;2023-04-03T04:26:36;9.43;;;2.95;;
76546;SDS011;65390;53.014;8.886;2023-04-03T04:29:01;8.07;;;3.17;;
76546;SDS011;65390;53.014;8.886;2023-04-03T04:31:26;17.52;;;2.75;;
76546;SDS011;65390;53.014;8.886;2023-04-03T04:33:52;10.10;;;2.20;;
76546;SDS011;65390;53.014;8.886;2023-04-03T04:36:17;13.40;;;3.22;;
76546;SDS011;65390;53.014;8.886;2023-04-03T04:38:42;10.53;;;3.53;;
76546;SDS011;65390;53.014;8.886;2023-04-03T04:41:08;8.30;;;2.53;;
76546;SDS011;65390;53.014;8.886;2023-04-03T04:43:33;14.20;;;3.13;;
76546;SDS011;65390;53.014;8.886;2023-04-03T04:46:02;3.47;;;2.05;;
76546;SDS011;65390;53.014;8.886;2023-04-03T04:48:27;11.60;;;3.15;;
76546;SDS011;65390;53.014;8.886;2023-04-03T04:50:53;8.27;;;2.30;;
76546;SDS011;65390;53.014;8.886;2023-04-03T04:53:18;8.63;;;2.47;;
76546;SDS011;65390;53.014;8.886;2023-04-03T04:55:43;12.40;;;3.80;;
76546;SDS011;65390;53.014;8.886;2023-04-03T04:58:08;15.02;;;3.03;;
76546;SDS011;65390;53.014;8.886;2023-04-03T05:00:34;5.90;;;3.30;;
76546;SDS011;65390;53.014;8.886;2023-04-03T05:02:59;13.10;;;2.70;;
76546;SDS011;65390;53.014;8.886;2023-04-03T05:05:24;7.50;;;2.50;;
76546;SDS011;65390;53.014;8.886;2023-04-03T05:07:50;12.60;;;3.60;;
76546;SDS011;65390;53.014;8.886;2023-04-03T05:10:15;5.45;;;2.30;;
76546;SDS011;65390;53.014;8.886;2023-04-03T05:12:40;8.35;;;2.17;;
76546;SDS011;65390;53.014;8.886;2023-04-03T05:15:05;15.48;;;2.75;;
76546;SDS011;65390;53.014;8.886;2023-04-03T05:17:31;14.63;;;2.92;;
76546;SDS011;65390;53.014;8.886;2023-04-03T05:19:56;10.45;;;2.47;;
76546;SDS011;65390;53.014;8.886;2023-04-03T05:22:21;18.00;;;2.83;;
76546;SDS011;65390;53.014;8.886;2023-04-03T05:24:47;10.60;;;2.55;;
76546;SDS011;65390;53.014;8.886;2023-04-03T05:27:12;13.00;;;2.47;;
76546;SDS011;65390;53.014;8.886;2023-04-03T05:29:37;39.92;;;4.70;;
76546;SDS011;65390;53.014;8.886;2023-04-03T05:32:02;13.80;;;2.53;;
76546;SDS011;65390;53.014;8.886;2023-04-03T05:34:28;14.15;;;2.78;;
76546;SDS011;65390;53.014;8.886;2023-04-03T05:36:53;7.03;;;2.57;;
76546;SDS011;65390;53.014;8.886;2023-04-03T05:39:18;8.17;;;2.57;;
76546;SDS011;65390;53.014;8.886;2023-04-03T05:41:43;15.13;;;2.33;;
76546;SDS011;65390;53.014;8.886;2023-04-03T05:44:09;13.50;;;3.80;;
76546;SDS011;65390;53.014;8.886;2023-04-03T05:46:34;9.73;;;2.90;;
76546;SDS011;65390;53.014;8.886;2023-04-03T05:48:59;13.20;;;2.90;;
76546;SDS011;65390;53.014;8.886;2023-04-03T05:51:25;12.45;;;2.55;;
76546;SDS011;65390;53.014;8.886;2023-04-03T05:53:53;12.73;;;3.63;;
76546;SDS011;65390;53.014;8.886;2023-04-03T05:56:19;10.63;;;2.40;;
76546;SDS011;65390;53.014;8.886;2023-04-03T05:58:45;6.82;;;2.47;;
76546;SDS011;65390;53.014;8.886;2023-04-03T06:01:11;4.80;;;2.05;;
76546;SDS011;65390;53.014;8.886;2023-04-03T06:03:36;9.05;;;2.17;;
76546;SDS011;65390;53.014;8.886;2023-04-03T06:06:02;7.80;;;2.15;;
76546;SDS011;65390;53.014;8.886;2023-04-03T06:08:28;5.07;;;1.60;;
76546;SDS011;65390;53.014;8.886;2023-04-03T06:10:53;8.57;;;3.00;;
76546;SDS011;65390;53.014;8.886;2023-04-03T06:13:19;9.85;;;2.65;;
76546;SDS011;65390;53.014;8.886;2023-04-03T06:15:44;8.98;;;2.38;;
76546;SDS011;65390;53.014;8.886;2023-04-03T06:18:09;12.93;;;2.33;;
76546;SDS011;65390;53.014;8.886;2023-04-03T06:20:35;7.72;;;2.45;;
76546;SDS011;65390;53.014;8.886;2023-04-03T06:23:00;7.60;;;2.00;;
76546;SDS011;65390;53.014;8.886;2023-04-03T06:25:25;5.32;;;1.70;;
76546;SDS011;65390;53.014;8.886;2023-04-03T06:27:51;6.53;;;1.98;;
76546;SDS011;65390;53.014;8.886;2023-04-03T06:30:16;8.50;;;2.07;;
76546;SDS011;65390;53.014;8.886;2023-04-03T06:32:42;7.97;;;1.88;;
76546;SDS011;65390;53.014;8.886;2023-04-03T06:35:08;9.88;;;1.90;;
76546;SDS011;65390;53.014;8.886;2023-04-03T06:37:33;8.80;;;2.15;;
76546;SDS011;65390;53.014;8.886;2023-04-03T06:39:58;10.52;;;2.95;;
76546;SDS011;65390;53.014;8.886;2023-04-03T06:42:25;7.07;;;2.03;;
76546;SDS011;65390;53.014;8.886;2023-04-03T06:44:50;8.02;;;1.88;;
76546;SDS011;65390;53.014;8.886;2023-04-03T06:47:16;5.50;;;1.83;;
76546;SDS011;65390;53.014;8.886;2023-04-03T06:49:41;5.18;;;2.28;;
76546;SDS011;65390;53.014;8.886;2023-04-03T06:52:07;7.70;;;2.00;;
76546;SDS011;65390;53.014;8.886;2023-04-03T06:54:32;7.10;;;1.88;;
76546;SDS011;65390;53.014;8.886;2023-04-03T06:56:58;9.05;;;2.55;;
76546;SDS011;65390;53.014;8.886;2023-04-03T06:59:23;10.45;;;2.40;;
76546;SDS011;65390;53.014;8.886;2023-04-03T07:01:48;8.15;;;2.42;;
76546;SDS011;65390;53.014;8.886;2023-04-03T07:04:14;5.40;;;2.13;;
76546;SDS011;65390;53.014;8.886;2023-04-03T07:06:39;3.33;;;1.25;;
76546;SDS011;65390;53.014;8.886;2023-04-03T07:09:05;7.35;;;1.98;;
76546;SDS011;65390;53.014;8.886;2023-04-03T07:11:31;9.32;;;1.38;;
76546;SDS011;65390;53.014;8.886;2023-04-03T07:13:56;5.93;;;1.90;;
76546;SDS011;65390;53.014;8.886;2023-04-03T07:16:21;5.25;;;1.60;;
76546;SDS011;65390;53.014;8.886;2023-04-03T07:18:46;7.97;;;1.80;;
76546;SDS011;65390;53.014;8.886;2023-04-03T07:21:12;3.90;;;1.25;;
76546;SDS011;65390;53.014;8.886;2023-04-03T07:23:37;3.28;;;1.35;;
76546;SDS011;65390;53.014;8.886;2023-04-03T07:26:03;4.38;;;1.98;;
76546;SDS011;65390;53.014;8.886;2023-04-03T07:28:28;3.28;;;1.20;;
76546;SDS011;65390;53.014;8.886;2023-04-03T07:30:59;6.45;;;1.50;;
76546;SDS011;65390;53.014;8.886;2023-04-03T07:33:25;9.40;;;1.75;;
76546;SDS011;65390;53.014;8.886;2023-04-03T07:35:51;4.93;;;1.75;;
76546;SDS011;65390;53.014;8.886;2023-04-03T07:38:16;6.45;;;1.38;;
76546;SDS011;65390;53.014;8.886;2023-04-03T07:40:45;6.03;;;1.33;;
76546;SDS011;65390;53.014;8.886;2023-04-03T07:43:10;5.00;;;1.60;;
76546;SDS011;65390;53.014;8.886;2023-04-03T07:45:36;7.32;;;1.58;;
76546;SDS011;65390;53.014;8.886;2023-04-03T07:48:01;4.27;;;1.37;;
76546;SDS011;65390;53.014;8.886;2023-04-03T07:50:27;4.40;;;1.10;;
76546;SDS011;65390;53.014;8.886;2023-04-03T07:52:52;2.53;;;1.50;;
76546;SDS011;65390;53.014;8.886;2023-04-03T07:55:19;6.72;;;1.80;;
76546;SDS011;65390;53.014;8.886;2023-04-03T07:57:44;4.88;;;1.17;;
76546;SDS011;65390;53.014;8.886;2023-04-03T08:00:10;4.05;;;1.40;;
76546;SDS011;65390;53.014;8.886;2023-04-03T08:02:37;5.32;;;1.52;;
76546;SDS011;65390;53.014;8.886;2023-04-03T08:05:02;4.47;;;1.57;;
76546;SDS011;65390;53.014;8.886;2023-04-03T08:07:27;3.63;;;1.10;;
76546;SDS011;65390;53.014;8.886;2023-04-03T08:09:52;5.20;;;1.20;;
76546;SDS011;65390;53.014;8.886;2023-04-03T08:12:18;6.03;;;1.23;;
76546;SDS011;65390;53.014;8.886;2023-04-03T08:14:43;8.18;;;1.30;;
76546;SDS011;65390;53.014;8.886;2023-04-03T08:17:08;5.83;;;1.10;;
76546;SDS011;65390;53.014;8.886;2023-04-03T08:19:36;5.97;;;1.02;;
76546;SDS011;65390;53.014;8.886;2023-04-03T08:22:01;2.72;;;1.20;;
76546;SDS011;65390;53.014;8.886;2023-04-03T08:24:28;4.82;;;1.40;;
76546;SDS011;65390;53.014;8.886;2023-04-03T08:26:53;2.35;;;1.27;;
76546;SDS011;65390;53.014;8.886;2023-04-03T08:29:18;4.88;;;0.93;;
76546;SDS011;65390;53.014;8.886;2023-04-03T08:31:44;5.18;;;1.58;;
76546;SDS011;65390;53.014;8.886;2023-04-03T08:34:10;6.82;;;1.25;;
76546;SDS011;65390;53.014;8.886;2023-04-03T08:36:36;4.25;;;1.27;;
76546;SDS011;65390;53.014;8.886;2023-04-03T08:39:02;3.45;;;1.35;;
76546;SDS011;65390;53.014;8.886;2023-04-03T08:41:37;6.05;;;0.98;;
76546;SDS011;65390;53.014;8.886;2023-04-03T08:51:56;2.85;;;0.98;;
76546;SDS011;65390;53.014;8.886;2023-04-03T08:54:25;7.20;;;1.13;;
76546;SDS011;65390;53.014;8.886;2023-04-03T08:56:53;4.47;;;0.95;;
76546;SDS011;65390;53.014;8.886;2023-04-03T08:59:19;3.20;;;0.98;;
76546;SDS011;65390;53.014;8.886;2023-04-03T09:01:47;3.93;;;1.23;;
76546;SDS011;65390;53.014;8.886;2023-04-03T09:04:13;4.53;;;1.45;;
76546;SDS011;65390;53.014;8.886;2023-04-03T09:06:39;7.40;;;0.95;;
76546;SDS011;65390;53.014;8.886;2023-04-03T09:11:47;3.33;;;0.77;;
76546;SDS011;65390;53.014;8.886;2023-04-03T09:14:26;5.25;;;1.13;;
76546;SDS011;65390;53.014;8.886;2023-04-03T09:16:58;2.38;;;1.27;;
76546;SDS011;65390;53.014;8.886;2023-04-03T09:21:55;3.67;;;0.90;;
76546;SDS011;65390;53.014;8.886;2023-04-03T09:24:21;3.05;;;0.77;;
76546;SDS011;65390;53.014;8.886;2023-04-03T09:27:07;5.63;;;0.85;;
76546;SDS011;65390;53.014;8.886;2023-04-03T09:29:32;3.88;;;1.10;;
76546;SDS011;65390;53.014;8.886;2023-04-03T09:32:00;4.35;;;1.02;;
76546;SDS011;65390;53.014;8.886;2023-04-03T09:34:32;2.20;;;0.80;;
76546;SDS011;65390;53.014;8.886;2023-04-03T09:37:01;3.50;;;1.35;;
76546;SDS011;65390;53.014;8.886;2023-04-03T09:39:31;1.42;;;0.57;;
76546;SDS011;65390;53.014;8.886;2023-04-03T09:41:57;2.72;;;0.88;;
76546;SDS011;65390;53.014;8.886;2023-04-03T09:44:24;2.17;;;0.77;;
76546;SDS011;65390;53.014;8.886;2023-04-03T09:46:50;4.82;;;1.05;;
76546;SDS011;65390;53.014;8.886;2023-04-03T09:49:16;1.70;;;0.60;;
76546;SDS011;65390;53.014;8.886;2023-04-03T09:51:42;2.97;;;0.73;;
76546;SDS011;65390;53.014;8.886;2023-04-03T09:56:53;2.10;;;0.82;;
76546;SDS011;65390;53.014;8.886;2023-04-03T09:59:20;3.83;;;1.67;;
76546;SDS011;65390;53.014;8.886;2023-04-03T10:01:59;1.15;;;0.80;;
76546;SDS011;65390;53.014;8.886;2023-04-03T10:04:25;4.15;;;0.90;;
76546;SDS011;65390;53.014;8.886;2023-04-03T10:06:54;2.97;;;0.85;;
76546;SDS011;65390;53.014;8.886;2023-04-03T10:14:26;1.45;;;0.80;;
76546;SDS011;65390;53.014;8.886;2023-04-03T10:16:57;3.53;;;0.95;;
76546;SDS011;65390;53.014;8.886;2023-04-03T10:19:39;3.15;;;0.68;;
76546;SDS011;65390;53.014;8.886;2023-04-03T10:29:55;2.45;;;0.88;;
76546;SDS011;65390;53.014;8.886;2023-04-03T10:32:30;3.67;;;1.38;;
76546;SDS011;65390;53.014;8.886;2023-04-03T10:35:08;1.98;;;0.70;;
76546;SDS011;65390;53.014;8.886;2023-04-03T10:37:41;5.65;;;1.00;;
76546;SDS011;65390;53.014;8.886;2023-04-03T10:43:19;1.88;;;0.63;;
76546;SDS011;65390;53.014;8.886;2023-04-03T10:46:00;4.38;;;1.10;;
76546;SDS011;65390;53.014;8.886;2023-04-03T10:53:50;2.83;;;1.00;;
76546;SDS011;65390;53.014;8.886;2023-04-03T10:59:06;7.68;;;1.05;;
76546;SDS011;65390;53.014;8.886;2023-04-03T11:01:33;4.70;;;0.98;;
76546;SDS011;65390;53.014;8.886;2023-04-03T11:04:00;7.38;;;1.50;;
76546;SDS011;65390;53.014;8.886;2023-04-03T11:06:30;4.22;;;1.33;;
76546;SDS011;65390;53.014;8.886;2023-04-03T11:14:36;2.33;;;1.25;;
76546;SDS011;65390;53.014;8.886;2023-04-03T11:19:34;5.22;;;1.20;;
76546;SDS011;65390;53.014;8.886;2023-04-03T11:22:03;3.15;;;1.17;;
76546;SDS011;65390;53.014;8.886;2023-04-03T11:24:31;2.78;;;1.13;;
76546;SDS011;65390;53.014;8.886;2023-04-03T11:26:57;3.65;;;0.75;;
76546;SDS011;65390;53.014;8.886;2023-04-03T11:29:24;2.95;;;1.10;;
76546;SDS011;65390;53.014;8.886;2023-04-03T11:37:50;2.40;;;0.93;;
76546;SDS011;65390;53.014;8.886;2023-04-03T11:39:58;4.85;;;1.35;;
76546;SDS011;65390;53.014;8.886;2023-04-03T11:47:48;3.33;;;1.05;;
76546;SDS011;65390;53.014;8.886;2023-04-03T11:50:38;3.08;;;1.17;;
76546;SDS011;65390;53.014;8.886;2023-04-03T12:03:29;7.70;;;1.40;;
76546;SDS011;65390;53.014;8.886;2023-04-03T12:21:22;5.03;;;1.17;;
76546;SDS011;65390;53.014;8.886;2023-04-03T12:23:59;5.25;;;1.33;;
76546;SDS011;65390;53.014;8.886;2023-04-03T12:29:19;3.42;;;1.02;;
76546;SDS011;65390;53.014;8.886;2023-04-03T12:45:02;1.45;;;0.90;;
76546;SDS011;65390;53.014;8.886;2023-04-03T12:47:35;3.92;;;1.40;;
76546;SDS011;65390;53.014;8.886;2023-04-03T12:50:03;3.33;;;1.23;;
76546;SDS011;65390;53.014;8.886;2023-04-03T12:54:54;6.07;;;1.30;;
76546;SDS011;65390;53.014;8.886;2023-04-03T12:57:22;3.50;;;1.40;;
76546;SDS011;65390;53.014;8.886;2023-04-03T12:59:48;2.30;;;1.20;;
76546;SDS011;65390;53.014;8.886;2023-04-03T13:04:45;4.05;;;1.83;;
76546;SDS011;65390;53.014;8.886;2023-04-03T13:12:31;2.83;;;1.40;;
76546;SDS011;65390;53.014;8.886;2023-04-03T13:14:58;3.17;;;1.13;;
76546;SDS011;65390;53.014;8.886;2023-04-03T13:17:23;6.32;;;1.80;;
76546;SDS011;65390;53.014;8.886;2023-04-03T13:19:49;3.55;;;1.38;;
76546;SDS011;65390;53.014;8.886;2023-04-03T13:22:29;3.88;;;1.75;;
76546;SDS011;65390;53.014;8.886;2023-04-03T13:24:58;6.30;;;1.70;;
76546;SDS011;65390;53.014;8.886;2023-04-03T13:27:24;2.20;;;1.45;;
76546;SDS011;65390;53.014;8.886;2023-04-03T13:29:51;1.90;;;1.23;;
76546;SDS011;65390;53.014;8.886;2023-04-03T13:32:19;5.28;;;1.27;;
76546;SDS011;65390;53.014;8.886;2023-04-03T13:34:45;3.72;;;1.80;;
76546;SDS011;65390;53.014;8.886;2023-04-03T13:39:45;6.47;;;1.48;;
76546;SDS011;65390;53.014;8.886;2023-04-03T13:42:29;3.33;;;1.58;;
76546;SDS011;65390;53.014;8.886;2023-04-03T13:47:39;4.45;;;1.27;;
76546;SDS011;65390;53.014;8.886;2023-04-03T13:52:48;3.60;;;1.45;;
76546;SDS011;65390;53.014;8.886;2023-04-03T13:55:22;6.88;;;1.55;;
76546;SDS011;65390;53.014;8.886;2023-04-03T13:57:52;3.03;;;1.23;;
76546;SDS011;65390;53.014;8.886;2023-04-03T14:00:22;5.22;;;1.52;;
76546;SDS011;65390;53.014;8.886;2023-04-03T14:02:53;6.35;;;1.75;;
76546;SDS011;65390;53.014;8.886;2023-04-03T14:05:19;8.23;;;1.40;;
76546;SDS011;65390;53.014;8.886;2023-04-03T14:07:46;5.70;;;1.40;;
76546;SDS011;65390;53.014;8.886;2023-04-03T14:10:11;7.22;;;1.35;;
76546;SDS011;65390;53.014;8.886;2023-04-03T14:12:37;3.17;;;1.30;;
76546;SDS011;65390;53.014;8.886;2023-04-03T14:15:05;2.83;;;1.38;;
76546;SDS011;65390;53.014;8.886;2023-04-03T14:17:35;3.45;;;1.50;;
76546;SDS011;65390;53.014;8.886;2023-04-03T14:20:01;4.43;;;1.13;;
76546;SDS011;65390;53.014;8.886;2023-04-03T14:22:27;2.88;;;1.27;;
76546;SDS011;65390;53.014;8.886;2023-04-03T14:24:53;5.82;;;1.40;;
76546;SDS011;65390;53.014;8.886;2023-04-03T14:27:23;3.67;;;1.55;;
76546;SDS011;65390;53.014;8.886;2023-04-03T14:32:14;3.40;;;1.25;;
76546;SDS011;65390;53.014;8.886;2023-04-03T14:34:41;4.95;;;1.40;;
76546;SDS011;65390;53.014;8.886;2023-04-03T14:37:10;6.70;;;1.33;;
76546;SDS011;65390;53.014;8.886;2023-04-03T14:39:36;5.35;;;1.52;;
76546;SDS011;65390;53.014;8.886;2023-04-03T14:42:01;2.08;;;1.08;;
76546;SDS011;65390;53.014;8.886;2023-04-03T14:44:26;2.40;;;1.60;;
76546;SDS011;65390;53.014;8.886;2023-04-03T14:46:52;4.78;;;1.38;;
76546;SDS011;65390;53.014;8.886;2023-04-03T14:49:18;5.47;;;1.42;;
76546;SDS011;65390;53.014;8.886;2023-04-03T14:51:45;2.92;;;1.52;;
76546;SDS011;65390;53.014;8.886;2023-04-03T14:54:14;5.78;;;1.67;;
76546;SDS011;65390;53.014;8.886;2023-04-03T14:56:39;2.92;;;1.30;;
76546;SDS011;65390;53.014;8.886;2023-04-03T14:59:05;3.80;;;1.40;;
76546;SDS011;65390;53.014;8.886;2023-04-03T15:01:30;5.25;;;1.63;;
76546;SDS011;65390;53.014;8.886;2023-04-03T15:03:55;4.57;;;1.75;;
76546;SDS011;65390;53.014;8.886;2023-04-03T15:06:21;5.18;;;1.60;;
76546;SDS011;65390;53.014;8.886;2023-04-03T15:08:47;4.38;;;1.30;;
76546;SDS011;65390;53.014;8.886;2023-04-03T15:11:12;2.38;;;1.40;;
76546;SDS011;65390;53.014;8.886;2023-04-03T15:13:38;6.03;;;1.85;;
76546;SDS011;65390;53.014;8.886;2023-04-03T15:16:05;5.25;;;2.05;;
76546;SDS011;65390;53.014;8.886;2023-04-03T15:18:31;6.13;;;2.38;;
76546;SDS011;65390;53.014;8.886;2023-04-03T15:20:57;4.40;;;1.45;;
76546;SDS011;65390;53.014;8.886;2023-04-03T15:23:23;5.15;;;1.30;;
76546;SDS011;65390;53.014;8.886;2023-04-03T15:25:51;5.43;;;1.70;;
76546;SDS011;65390;53.014;8.886;2023-04-03T15:28:27;7.65;;;1.48;;
76546;SDS011;65390;53.014;8.886;2023-04-03T15:30:53;8.20;;;1.77;;
76546;SDS011;65390;53.014;8.886;2023-04-03T15:33:18;2.88;;;1.13;;
76546;SDS011;65390;53.014;8.886;2023-04-03T15:35:44;3.72;;;1.45;;
76546;SDS011;65390;53.014;8.886;2023-04-03T15:38:09;8.55;;;1.48;;
76546;SDS011;65390;53.014;8.886;2023-04-03T15:40:35;2.85;;;1.00;;
76546;SDS011;65390;53.014;8.886;2023-04-03T15:43:00;3.35;;;1.30;;
76546;SDS011;65390;53.014;8.886;2023-04-03T15:45:27;2.58;;;1.23;;
76546;SDS011;65390;53.014;8.886;2023-04-03T15:47:53;5.43;;;1.38;;
76546;SDS011;65390;53.014;8.886;2023-04-03T15:50:18;2.47;;;1.50;;
76546;SDS011;65390;53.014;8.886;2023-04-03T15:52:44;4.72;;;1.60;;
76546;SDS011;65390;53.014;8.886;2023-04-03T15:55:09;3.50;;;1.23;;
76546;SDS011;65390;53.014;8.886;2023-04-03T15:57:34;3.58;;;1.40;;
76546;SDS011;65390;53.014;8.886;2023-04-03T15:59:59;6.88;;;1.67;;
76546;SDS011;65390;53.014;8.886;2023-04-03T16:02:25;6.28;;;1.58;;
76546;SDS011;65390;53.014;8.886;2023-04-03T16:04:53;3.92;;;1.45;;
76546;SDS011;65390;53.014;8.886;2023-04-03T16:07:18;3.58;;;1.63;;
76546;SDS011;65390;53.014;8.886;2023-04-03T16:09:43;8.68;;;1.73;;
76546;SDS011;65390;53.014;8.886;2023-04-03T16:12:08;5.35;;;1.55;;
76546;SDS011;65390;53.014;8.886;2023-04-03T16:14:34;2.70;;;1.23;;
76546;SDS011;65390;53.014;8.886;2023-04-03T16:16:59;2.33;;;1.38;;
76546;SDS011;65390;53.014;8.886;2023-04-03T16:19:25;6.95;;;3.03;;
76546;SDS011;65390;53.014;8.886;2023-04-03T16:21:50;6.40;;;1.42;;
76546;SDS011;65390;53.014;8.886;2023-04-03T16:24:15;3.03;;;1.70;;
76546;SDS011;65390;53.014;8.886;2023-04-03T16:26:41;5.07;;;1.80;;
76546;SDS011;65390;53.014;8.886;2023-04-03T16:29:06;4.83;;;1.10;;
76546;SDS011;65390;53.014;8.886;2023-04-03T16:31:31;4.93;;;1.90;;
76546;SDS011;65390;53.014;8.886;2023-04-03T16:33:57;6.88;;;1.55;;
76546;SDS011;65390;53.014;8.886;2023-04-03T16:36:23;7.60;;;2.58;;
76546;SDS011;65390;53.014;8.886;2023-04-03T16:38:48;5.18;;;1.27;;
76546;SDS011;65390;53.014;8.886;2023-04-03T16:41:14;6.25;;;1.27;;
76546;SDS011;65390;53.014;8.886;2023-04-03T16:43:39;5.22;;;1.42;;
76546;SDS011;65390;53.014;8.886;2023-04-03T16:46:04;5.20;;;1.70;;